sensor_id;sensor_type;location;lat;lon;timestamp;P1;durP1;ratioP1;P2;durP2;ratioP2
36441;SDS011;64346;50.820;16.274;2023-03-02T00:04:07;220.93;;;112.25;;
36441;SDS011;64346;50.820;16.274;2023-03-02T00:06:39;214.80;;;103.82;;
36441;SDS011;64346;50.820;16.274;2023-03-02T00:09:06;193.35;;;96.55;;
36441;SDS011;64346;50.820;16.274;2023-03-02T00:11:35;202.82;;;99.65;;
36441;SDS011;64346;50.820;16.274;2023-03-02T00:14:03;188.73;;;93.80;;
36441;SDS011;64346;50.820;16.274;2023-03-02T00:16:32;173.07;;;90.18;;
36441;SDS011;64346;50.820;16.274;2023-03-02T00:18:59;185.27;;;88.25;;
36441;SDS011;64346;50.820;16.274;2023-03-02T00:21:27;186.82;;;88.32;;
36441;SDS011;64346;50.820;16.274;2023-03-02T00:23:54;185.75;;;89.80;;
36441;SDS011;64346;50.820;16.274;2023-03-02T00:26:21;192.32;;;94.28;;
36441;SDS011;64346;50.820;16.274;2023-03-02T00:28:49;195.80;;;97.57;;
36441;SDS011;64346;50.820;16.274;2023-03-02T00:31:19;181.07;;;89.65;;
36441;SDS011;64346;50.820;16.274;2023-03-02T00:33:50;176.30;;;85.45;;
36441;SDS011;64346;50.820;16.274;2023-03-02T00:36:19;190.38;;;90.85;;
36441;SDS011;64346;50.820;16.274;2023-03-02T00:38:50;191.32;;;91.47;;
36441;SDS011;64346;50.820;16.274;2023-03-02T00:41:20;180.30;;;91.20;;
36441;SDS011;64346;50.820;16.274;2023-03-02T00:43:47;205.93;;;102.40;;
36441;SDS011;64346;50.820;16.274;2023-03-02T00:46:17;213.45;;;105.38;;
36441;SDS011;64346;50.820;16.274;2023-03-02T00:48:46;206.55;;;101.88;;
36441;SDS011;64346;50.820;16.274;2023-03-02T00:51:13;204.90;;;98.32;;
36441;SDS011;64346;50.820;16.274;2023-03-02T00:53:43;191.38;;;95.20;;
36441;SDS011;64346;50.820;16.274;2023-03-02T00:56:11;204.25;;;96.65;;
36441;SDS011;64346;50.820;16.274;2023-03-02T00:58:40;181.82;;;92.30;;
36441;SDS011;64346;50.820;16.274;2023-03-02T01:01:09;178.70;;;84.68;;
36441;SDS011;64346;50.820;16.274;2023-03-02T01:03:39;175.63;;;83.13;;
36441;SDS011;64346;50.820;16.274;2023-03-02T01:06:15;159.18;;;75.82;;
36441;SDS011;64346;50.820;16.274;2023-03-02T01:08:48;163.52;;;80.47;;
36441;SDS011;64346;50.820;16.274;2023-03-02T01:11:19;189.18;;;89.78;;
36441;SDS011;64346;50.820;16.274;2023-03-02T01:13:47;177.43;;;86.85;;
36441;SDS011;64346;50.820;16.274;2023-03-02T01:16:15;157.18;;;78.32;;
36441;SDS011;64346;50.820;16.274;2023-03-02T01:18:45;141.32;;;71.32;;
36441;SDS011;64346;50.820;16.274;2023-03-02T01:21:13;124.32;;;62.28;;
36441;SDS011;64346;50.820;16.274;2023-03-02T01:23:41;145.50;;;69.07;;
36441;SDS011;64346;50.820;16.274;2023-03-02T01:26:09;151.45;;;71.97;;
36441;SDS011;64346;50.820;16.274;2023-03-02T01:28:36;157.57;;;75.68;;
36441;SDS011;64346;50.820;16.274;2023-03-02T01:31:06;143.02;;;70.00;;
36441;SDS011;64346;50.820;16.274;2023-03-02T01:33:33;146.23;;;71.72;;
36441;SDS011;64346;50.820;16.274;2023-03-02T01:36:01;145.80;;;71.15;;
36441;SDS011;64346;50.820;16.274;2023-03-02T01:38:30;138.98;;;69.65;;
36441;SDS011;64346;50.820;16.274;2023-03-02T01:40:58;152.43;;;76.72;;
36441;SDS011;64346;50.820;16.274;2023-03-02T01:43:25;139.68;;;71.93;;
36441;SDS011;64346;50.820;16.274;2023-03-02T01:48:31;136.32;;;68.18;;
36441;SDS011;64346;50.820;16.274;2023-03-02T01:51:00;130.20;;;64.63;;
36441;SDS011;64346;50.820;16.274;2023-03-02T01:53:28;130.32;;;66.25;;
36441;SDS011;64346;50.820;16.274;2023-03-02T01:56:01;121.95;;;63.25;;
36441;SDS011;64346;50.820;16.274;2023-03-02T01:58:30;128.30;;;62.08;;
36441;SDS011;64346;50.820;16.274;2023-03-02T02:01:02;124.88;;;61.38;;
36441;SDS011;64346;50.820;16.274;2023-03-02T02:03:30;125.20;;;62.40;;
36441;SDS011;64346;50.820;16.274;2023-03-02T02:06:20;116.45;;;56.38;;
36441;SDS011;64346;50.820;16.274;2023-03-02T02:08:49;116.40;;;57.70;;
36441;SDS011;64346;50.820;16.274;2023-03-02T02:11:20;112.57;;;55.08;;
36441;SDS011;64346;50.820;16.274;2023-03-02T02:13:48;112.40;;;55.25;;
36441;SDS011;64346;50.820;16.274;2023-03-02T02:16:19;109.70;;;54.55;;
36441;SDS011;64346;50.820;16.274;2023-03-02T02:18:46;112.05;;;57.92;;
36441;SDS011;64346;50.820;16.274;2023-03-02T02:21:13;120.50;;;58.65;;
36441;SDS011;64346;50.820;16.274;2023-03-02T02:23:43;123.80;;;61.45;;
36441;SDS011;64346;50.820;16.274;2023-03-02T02:26:32;121.05;;;60.80;;
36441;SDS011;64346;50.820;16.274;2023-03-02T02:29:11;114.30;;;58.15;;
36441;SDS011;64346;50.820;16.274;2023-03-02T02:34:23;105.63;;;51.42;;
36441;SDS011;64346;50.820;16.274;2023-03-02T02:37:02;106.28;;;52.97;;
36441;SDS011;64346;50.820;16.274;2023-03-02T02:39:42;98.65;;;49.00;;
36441;SDS011;64346;50.820;16.274;2023-03-02T02:42:16;96.35;;;48.35;;
36441;SDS011;64346;50.820;16.274;2023-03-02T02:44:56;102.30;;;51.25;;
36441;SDS011;64346;50.820;16.274;2023-03-02T02:47:25;97.80;;;50.17;;
36441;SDS011;64346;50.820;16.274;2023-03-02T02:49:53;97.95;;;50.60;;
36441;SDS011;64346;50.820;16.274;2023-03-02T02:52:25;110.32;;;55.08;;
36441;SDS011;64346;50.820;16.274;2023-03-02T02:54:56;95.38;;;47.97;;
36441;SDS011;64346;50.820;16.274;2023-03-02T02:57:27;93.82;;;45.72;;
36441;SDS011;64346;50.820;16.274;2023-03-02T02:59:58;99.97;;;52.03;;
36441;SDS011;64346;50.820;16.274;2023-03-02T03:02:29;82.18;;;41.30;;
36441;SDS011;64346;50.820;16.274;2023-03-02T03:05:03;91.57;;;42.97;;
36441;SDS011;64346;50.820;16.274;2023-03-02T03:07:31;89.50;;;44.90;;
36441;SDS011;64346;50.820;16.274;2023-03-02T03:12:47;94.35;;;46.88;;
36441;SDS011;64346;50.820;16.274;2023-03-02T03:15:16;88.90;;;46.13;;
36441;SDS011;64346;50.820;16.274;2023-03-02T03:17:47;90.13;;;45.40;;
36441;SDS011;64346;50.820;16.274;2023-03-02T03:20:22;78.15;;;41.30;;
36441;SDS011;64346;50.820;16.274;2023-03-02T03:22:51;83.72;;;40.67;;
36441;SDS011;64346;50.820;16.274;2023-03-02T03:25:19;79.68;;;40.10;;
36441;SDS011;64346;50.820;16.274;2023-03-02T03:27:51;74.03;;;37.80;;
36441;SDS011;64346;50.820;16.274;2023-03-02T03:30:21;81.82;;;44.55;;
36441;SDS011;64346;50.820;16.274;2023-03-02T03:32:48;95.82;;;47.13;;
36441;SDS011;64346;50.820;16.274;2023-03-02T03:35:15;90.55;;;44.83;;
36441;SDS011;64346;50.820;16.274;2023-03-02T03:37:43;100.22;;;47.83;;
36441;SDS011;64346;50.820;16.274;2023-03-02T03:40:12;95.80;;;47.95;;
36441;SDS011;64346;50.820;16.274;2023-03-02T03:42:40;106.22;;;49.83;;
36441;SDS011;64346;50.820;16.274;2023-03-02T03:45:08;108.18;;;55.10;;
36441;SDS011;64346;50.820;16.274;2023-03-02T03:47:35;102.13;;;51.28;;
36441;SDS011;64346;50.820;16.274;2023-03-02T03:50:03;109.18;;;54.03;;
36441;SDS011;64346;50.820;16.274;2023-03-02T03:52:33;111.90;;;54.22;;
36441;SDS011;64346;50.820;16.274;2023-03-02T03:55:02;112.22;;;55.97;;
36441;SDS011;64346;50.820;16.274;2023-03-02T03:57:33;114.82;;;55.95;;
36441;SDS011;64346;50.820;16.274;2023-03-02T04:00:00;113.53;;;55.60;;
36441;SDS011;64346;50.820;16.274;2023-03-02T04:02:31;105.15;;;52.45;;
36441;SDS011;64346;50.820;16.274;2023-03-02T04:05:03;94.60;;;49.95;;
36441;SDS011;64346;50.820;16.274;2023-03-02T04:07:31;99.57;;;48.35;;
36441;SDS011;64346;50.820;16.274;2023-03-02T04:09:59;96.13;;;48.20;;
36441;SDS011;64346;50.820;16.274;2023-03-02T04:12:29;93.22;;;44.80;;
36441;SDS011;64346;50.820;16.274;2023-03-02T04:14:56;90.30;;;44.65;;
36441;SDS011;64346;50.820;16.274;2023-03-02T04:17:24;86.03;;;43.97;;
36441;SDS011;64346;50.820;16.274;2023-03-02T04:19:54;85.28;;;44.53;;
36441;SDS011;64346;50.820;16.274;2023-03-02T04:22:25;85.13;;;43.80;;
36441;SDS011;64346;50.820;16.274;2023-03-02T04:24:52;87.15;;;43.78;;
36441;SDS011;64346;50.820;16.274;2023-03-02T04:27:20;91.32;;;44.72;;
36441;SDS011;64346;50.820;16.274;2023-03-02T04:29:47;89.85;;;43.10;;
36441;SDS011;64346;50.820;16.274;2023-03-02T04:32:14;87.82;;;42.38;;
36441;SDS011;64346;50.820;16.274;2023-03-02T04:34:41;87.70;;;43.00;;
36441;SDS011;64346;50.820;16.274;2023-03-02T04:37:09;83.57;;;42.42;;
36441;SDS011;64346;50.820;16.274;2023-03-02T04:39:38;80.57;;;40.83;;
36441;SDS011;64346;50.820;16.274;2023-03-02T04:42:06;83.28;;;41.30;;
36441;SDS011;64346;50.820;16.274;2023-03-02T04:44:35;76.10;;;39.63;;
36441;SDS011;64346;50.820;16.274;2023-03-02T04:47:02;72.25;;;39.08;;
36441;SDS011;64346;50.820;16.274;2023-03-02T04:49:30;79.10;;;38.80;;
36441;SDS011;64346;50.820;16.274;2023-03-02T04:51:57;68.30;;;36.40;;
36441;SDS011;64346;50.820;16.274;2023-03-02T04:54:25;69.10;;;35.15;;
36441;SDS011;64346;50.820;16.274;2023-03-02T04:56:55;72.50;;;36.83;;
36441;SDS011;64346;50.820;16.274;2023-03-02T04:59:23;71.22;;;36.05;;
36441;SDS011;64346;50.820;16.274;2023-03-02T05:01:54;75.40;;;37.35;;
36441;SDS011;64346;50.820;16.274;2023-03-02T05:04:23;82.07;;;41.63;;
36441;SDS011;64346;50.820;16.274;2023-03-02T05:06:51;87.13;;;41.38;;
36441;SDS011;64346;50.820;16.274;2023-03-02T05:09:21;82.63;;;40.65;;
36441;SDS011;64346;50.820;16.274;2023-03-02T05:11:51;91.50;;;44.22;;
36441;SDS011;64346;50.820;16.274;2023-03-02T05:14:19;85.05;;;41.58;;
36441;SDS011;64346;50.820;16.274;2023-03-02T05:16:47;100.07;;;48.58;;
36441;SDS011;64346;50.820;16.274;2023-03-02T05:19:14;98.10;;;49.05;;
36441;SDS011;64346;50.820;16.274;2023-03-02T05:21:42;106.85;;;49.67;;
36441;SDS011;64346;50.820;16.274;2023-03-02T05:24:10;102.38;;;49.70;;
36441;SDS011;64346;50.820;16.274;2023-03-02T05:26:38;114.75;;;50.97;;
36441;SDS011;64346;50.820;16.274;2023-03-02T05:29:08;102.18;;;48.65;;
36441;SDS011;64346;50.820;16.274;2023-03-02T05:31:36;99.90;;;49.47;;
36441;SDS011;64346;50.820;16.274;2023-03-02T05:34:09;102.55;;;51.35;;
36441;SDS011;64346;50.820;16.274;2023-03-02T05:36:42;106.88;;;53.42;;
36441;SDS011;64346;50.820;16.274;2023-03-02T05:39:10;111.10;;;53.60;;
36441;SDS011;64346;50.820;16.274;2023-03-02T05:41:38;115.38;;;56.42;;
36441;SDS011;64346;50.820;16.274;2023-03-02T05:44:06;113.43;;;54.03;;
36441;SDS011;64346;50.820;16.274;2023-03-02T05:46:37;117.30;;;57.80;;
36441;SDS011;64346;50.820;16.274;2023-03-02T05:49:04;113.63;;;57.15;;
36441;SDS011;64346;50.820;16.274;2023-03-02T05:51:32;115.00;;;55.67;;
36441;SDS011;64346;50.820;16.274;2023-03-02T05:53:59;127.80;;;62.40;;
36441;SDS011;64346;50.820;16.274;2023-03-02T05:56:27;143.77;;;70.38;;
36441;SDS011;64346;50.820;16.274;2023-03-02T05:58:54;133.00;;;67.88;;
36441;SDS011;64346;50.820;16.274;2023-03-02T06:01:24;125.82;;;60.47;;
36441;SDS011;64346;50.820;16.274;2023-03-02T06:03:51;111.00;;;53.75;;
36441;SDS011;64346;50.820;16.274;2023-03-02T06:06:20;115.88;;;56.15;;
36441;SDS011;64346;50.820;16.274;2023-03-02T06:08:47;107.78;;;53.03;;
36441;SDS011;64346;50.820;16.274;2023-03-02T06:11:15;114.15;;;56.83;;
36441;SDS011;64346;50.820;16.274;2023-03-02T06:13:42;106.22;;;54.08;;
36441;SDS011;64346;50.820;16.274;2023-03-02T06:16:09;113.05;;;55.60;;
36441;SDS011;64346;50.820;16.274;2023-03-02T06:18:37;111.88;;;57.80;;
36441;SDS011;64346;50.820;16.274;2023-03-02T06:21:07;113.97;;;56.55;;
36441;SDS011;64346;50.820;16.274;2023-03-02T06:23:34;105.65;;;55.60;;
36441;SDS011;64346;50.820;16.274;2023-03-02T06:26:08;113.60;;;56.90;;
36441;SDS011;64346;50.820;16.274;2023-03-02T06:28:41;104.07;;;56.97;;
36441;SDS011;64346;50.820;16.274;2023-03-02T06:31:19;102.93;;;56.78;;
36441;SDS011;64346;50.820;16.274;2023-03-02T06:33:47;99.32;;;56.95;;
36441;SDS011;64346;50.820;16.274;2023-03-02T06:36:17;91.45;;;54.20;;
36441;SDS011;64346;50.820;16.274;2023-03-02T06:38:44;98.47;;;60.22;;
36441;SDS011;64346;50.820;16.274;2023-03-02T06:41:11;98.10;;;58.55;;
36441;SDS011;64346;50.820;16.274;2023-03-02T06:43:38;103.43;;;62.30;;
36441;SDS011;64346;50.820;16.274;2023-03-02T06:46:06;101.75;;;63.00;;
36441;SDS011;64346;50.820;16.274;2023-03-02T06:48:33;103.68;;;64.85;;
36441;SDS011;64346;50.820;16.274;2023-03-02T06:51:01;111.60;;;70.35;;
36441;SDS011;64346;50.820;16.274;2023-03-02T06:53:28;114.85;;;74.38;;
36441;SDS011;64346;50.820;16.274;2023-03-02T06:55:58;112.07;;;74.80;;
36441;SDS011;64346;50.820;16.274;2023-03-02T06:58:25;116.82;;;75.70;;
36441;SDS011;64346;50.820;16.274;2023-03-02T07:00:52;109.18;;;73.00;;
36441;SDS011;64346;50.820;16.274;2023-03-02T07:03:22;103.13;;;69.22;;
36441;SDS011;64346;50.820;16.274;2023-03-02T07:05:49;107.63;;;70.55;;
36441;SDS011;64346;50.820;16.274;2023-03-02T07:08:19;98.65;;;69.22;;
36441;SDS011;64346;50.820;16.274;2023-03-02T07:10:46;104.60;;;73.47;;
36441;SDS011;64346;50.820;16.274;2023-03-02T07:13:13;103.32;;;73.57;;
36441;SDS011;64346;50.820;16.274;2023-03-02T07:15:41;105.03;;;73.30;;
36441;SDS011;64346;50.820;16.274;2023-03-02T07:18:08;102.50;;;75.20;;
36441;SDS011;64346;50.820;16.274;2023-03-02T07:20:35;116.28;;;67.93;;
36441;SDS011;64346;50.820;16.274;2023-03-02T07:23:03;92.72;;;68.82;;
36441;SDS011;64346;50.820;16.274;2023-03-02T07:25:31;89.40;;;64.97;;
36441;SDS011;64346;50.820;16.274;2023-03-02T07:28:01;88.60;;;64.13;;
36441;SDS011;64346;50.820;16.274;2023-03-02T07:30:28;114.93;;;87.50;;
36441;SDS011;64346;50.820;16.274;2023-03-02T07:32:56;96.90;;;74.57;;
36441;SDS011;64346;50.820;16.274;2023-03-02T07:35:23;88.50;;;64.68;;
36441;SDS011;64346;50.820;16.274;2023-03-02T07:37:52;85.80;;;64.35;;
36441;SDS011;64346;50.820;16.274;2023-03-02T07:40:19;88.53;;;65.50;;
36441;SDS011;64346;50.820;16.274;2023-03-02T07:42:46;86.68;;;65.63;;
36441;SDS011;64346;50.820;16.274;2023-03-02T07:45:14;89.68;;;66.50;;
36441;SDS011;64346;50.820;16.274;2023-03-02T07:47:41;89.22;;;67.70;;
36441;SDS011;64346;50.820;16.274;2023-03-02T07:50:09;93.80;;;68.70;;
36441;SDS011;64346;50.820;16.274;2023-03-02T07:52:36;88.03;;;67.57;;
36441;SDS011;64346;50.820;16.274;2023-03-02T07:55:04;86.05;;;65.68;;
36441;SDS011;64346;50.820;16.274;2023-03-02T07:57:34;70.32;;;54.05;;
36441;SDS011;64346;50.820;16.274;2023-03-02T08:00:02;72.35;;;54.63;;
36441;SDS011;64346;50.820;16.274;2023-03-02T08:02:30;80.28;;;63.85;;
36441;SDS011;64346;50.820;16.274;2023-03-02T08:04:57;71.50;;;57.35;;
36441;SDS011;64346;50.820;16.274;2023-03-02T08:07:29;66.95;;;49.63;;
36441;SDS011;64346;50.820;16.274;2023-03-02T08:09:57;58.05;;;42.53;;
36441;SDS011;64346;50.820;16.274;2023-03-02T08:12:24;73.80;;;57.47;;
36441;SDS011;64346;50.820;16.274;2023-03-02T08:14:51;65.85;;;52.70;;
36441;SDS011;64346;50.820;16.274;2023-03-02T08:17:18;69.45;;;50.65;;
36441;SDS011;64346;50.820;16.274;2023-03-02T08:22:22;56.90;;;42.67;;
36441;SDS011;64346;50.820;16.274;2023-03-02T08:27:21;54.35;;;40.17;;
36441;SDS011;64346;50.820;16.274;2023-03-02T08:29:48;53.03;;;39.83;;
36441;SDS011;64346;50.820;16.274;2023-03-02T08:32:16;52.33;;;39.35;;
36441;SDS011;64346;50.820;16.274;2023-03-02T08:34:43;45.10;;;34.20;;
36441;SDS011;64346;50.820;16.274;2023-03-02T08:37:10;45.20;;;35.83;;
36441;SDS011;64346;50.820;16.274;2023-03-02T08:39:38;45.92;;;35.17;;
36441;SDS011;64346;50.820;16.274;2023-03-02T08:42:05;43.58;;;33.80;;
36441;SDS011;64346;50.820;16.274;2023-03-02T08:44:32;48.00;;;34.63;;
36441;SDS011;64346;50.820;16.274;2023-03-02T08:47:04;37.67;;;30.63;;
36441;SDS011;64346;50.820;16.274;2023-03-02T08:49:32;40.55;;;29.67;;
36441;SDS011;64346;50.820;16.274;2023-03-02T08:52:01;37.85;;;28.70;;
36441;SDS011;64346;50.820;16.274;2023-03-02T08:54:31;26.67;;;18.75;;
36441;SDS011;64346;50.820;16.274;2023-03-02T08:56:59;24.33;;;16.67;;
36441;SDS011;64346;50.820;16.274;2023-03-02T08:59:27;22.38;;;16.58;;
36441;SDS011;64346;50.820;16.274;2023-03-02T09:01:57;25.23;;;17.45;;
36441;SDS011;64346;50.820;16.274;2023-03-02T09:04:27;21.90;;;16.60;;
36441;SDS011;64346;50.820;16.274;2023-03-02T09:06:57;23.70;;;15.50;;
36441;SDS011;64346;50.820;16.274;2023-03-02T09:09:24;21.88;;;15.77;;
36441;SDS011;64346;50.820;16.274;2023-03-02T09:11:55;21.33;;;16.25;;
36441;SDS011;64346;50.820;16.274;2023-03-02T09:14:22;22.73;;;16.55;;
36441;SDS011;64346;50.820;16.274;2023-03-02T09:16:49;24.48;;;18.05;;
36441;SDS011;64346;50.820;16.274;2023-03-02T09:19:19;20.17;;;16.02;;
36441;SDS011;64346;50.820;16.274;2023-03-02T09:21:46;20.05;;;16.23;;
36441;SDS011;64346;50.820;16.274;2023-03-02T09:24:16;21.33;;;15.70;;
36441;SDS011;64346;50.820;16.274;2023-03-02T09:26:43;21.40;;;14.95;;
36441;SDS011;64346;50.820;16.274;2023-03-02T09:29:10;19.30;;;14.95;;
36441;SDS011;64346;50.820;16.274;2023-03-02T09:31:40;21.13;;;15.80;;
36441;SDS011;64346;50.820;16.274;2023-03-02T09:34:08;20.73;;;16.48;;
36441;SDS011;64346;50.820;16.274;2023-03-02T09:36:37;21.42;;;15.65;;
36441;SDS011;64346;50.820;16.274;2023-03-02T09:39:07;21.00;;;15.75;;
36441;SDS011;64346;50.820;16.274;2023-03-02T09:46:55;25.38;;;16.38;;
36441;SDS011;64346;50.820;16.274;2023-03-02T09:52:35;20.13;;;13.93;;
36441;SDS011;64346;50.820;16.274;2023-03-02T09:55:19;19.33;;;13.35;;
36441;SDS011;64346;50.820;16.274;2023-03-02T09:57:49;19.05;;;13.07;;
36441;SDS011;64346;50.820;16.274;2023-03-02T10:03:00;20.85;;;13.73;;
36441;SDS011;64346;50.820;16.274;2023-03-02T10:05:52;18.00;;;11.70;;
36441;SDS011;64346;50.820;16.274;2023-03-02T10:08:23;15.93;;;11.63;;
36441;SDS011;64346;50.820;16.274;2023-03-02T10:13:44;19.92;;;12.65;;
36441;SDS011;64346;50.820;16.274;2023-03-02T10:16:23;16.45;;;11.05;;
36441;SDS011;64346;50.820;16.274;2023-03-02T10:24:31;19.55;;;12.88;;
36441;SDS011;64346;50.820;16.274;2023-03-02T10:27:16;18.08;;;12.25;;
36441;SDS011;64346;50.820;16.274;2023-03-02T10:29:58;21.98;;;13.55;;
36441;SDS011;64346;50.820;16.274;2023-03-02T10:32:38;21.23;;;16.42;;
36441;SDS011;64346;50.820;16.274;2023-03-02T10:35:23;21.67;;;14.80;;
36441;SDS011;64346;50.820;16.274;2023-03-02T10:37:56;20.98;;;15.32;;
36441;SDS011;64346;50.820;16.274;2023-03-02T10:45:41;20.58;;;14.38;;
36441;SDS011;64346;50.820;16.274;2023-03-02T10:48:12;19.40;;;14.50;;
36441;SDS011;64346;50.820;16.274;2023-03-02T10:50:42;21.25;;;14.18;;
36441;SDS011;64346;50.820;16.274;2023-03-02T10:53:18;19.08;;;13.32;;
36441;SDS011;64346;50.820;16.274;2023-03-02T10:55:46;22.27;;;13.45;;
36441;SDS011;64346;50.820;16.274;2023-03-02T10:58:29;22.27;;;13.07;;
36441;SDS011;64346;50.820;16.274;2023-03-02T11:03:27;17.58;;;11.90;;
36441;SDS011;64346;50.820;16.274;2023-03-02T11:05:56;17.52;;;12.25;;
36441;SDS011;64346;50.820;16.274;2023-03-02T11:08:26;17.58;;;12.75;;
36441;SDS011;64346;50.820;16.274;2023-03-02T11:10:57;18.00;;;12.40;;
36441;SDS011;64346;50.820;16.274;2023-03-02T11:15:58;20.70;;;13.18;;
36441;SDS011;64346;50.820;16.274;2023-03-02T11:45:45;23.20;;;16.25;;
36441;SDS011;64346;50.820;16.274;2023-03-02T11:48:08;24.98;;;16.50;;
36441;SDS011;64346;50.820;16.274;2023-03-02T11:50:53;25.90;;;17.83;;
36441;SDS011;64346;50.820;16.274;2023-03-02T11:53:42;25.02;;;16.10;;
36441;SDS011;64346;50.820;16.274;2023-03-02T11:56:12;25.98;;;17.02;;
36441;SDS011;64346;50.820;16.274;2023-03-02T11:58:39;29.05;;;17.23;;
36441;SDS011;64346;50.820;16.274;2023-03-02T12:01:13;30.85;;;17.52;;
36441;SDS011;64346;50.820;16.274;2023-03-02T12:03:46;27.40;;;16.45;;
36441;SDS011;64346;50.820;16.274;2023-03-02T12:08:47;28.70;;;16.23;;
36441;SDS011;64346;50.820;16.274;2023-03-02T12:13:45;31.65;;;17.40;;
36441;SDS011;64346;50.820;16.274;2023-03-02T12:24:29;30.10;;;16.58;;
36441;SDS011;64346;50.820;16.274;2023-03-02T12:29:55;31.42;;;15.90;;
36441;SDS011;64346;50.820;16.274;2023-03-02T12:32:35;29.58;;;16.13;;
36441;SDS011;64346;50.820;16.274;2023-03-02T12:48:31;31.52;;;16.10;;
36441;SDS011;64346;50.820;16.274;2023-03-02T12:51:21;30.08;;;16.40;;
36441;SDS011;64346;50.820;16.274;2023-03-02T12:54:02;30.27;;;15.68;;
36441;SDS011;64346;50.820;16.274;2023-03-02T12:56:37;31.02;;;15.25;;
36441;SDS011;64346;50.820;16.274;2023-03-02T12:59:15;32.50;;;16.48;;
36441;SDS011;64346;50.820;16.274;2023-03-02T13:01:50;31.25;;;17.02;;
36441;SDS011;64346;50.820;16.274;2023-03-02T13:04:29;34.95;;;19.65;;
36441;SDS011;64346;50.820;16.274;2023-03-02T13:06:56;34.90;;;18.60;;
36441;SDS011;64346;50.820;16.274;2023-03-02T13:09:29;39.47;;;20.80;;
36441;SDS011;64346;50.820;16.274;2023-03-02T13:11:59;33.45;;;15.85;;
36441;SDS011;64346;50.820;16.274;2023-03-02T13:14:32;29.70;;;16.38;;
36441;SDS011;64346;50.820;16.274;2023-03-02T13:17:02;31.33;;;15.68;;
36441;SDS011;64346;50.820;16.274;2023-03-02T13:19:33;30.25;;;15.20;;
36441;SDS011;64346;50.820;16.274;2023-03-02T13:22:00;30.55;;;16.05;;
36441;SDS011;64346;50.820;16.274;2023-03-02T13:27:18;36.28;;;17.60;;
36441;SDS011;64346;50.820;16.274;2023-03-02T13:29:47;35.03;;;16.83;;
36441;SDS011;64346;50.820;16.274;2023-03-02T13:32:21;27.77;;;16.17;;
36441;SDS011;64346;50.820;16.274;2023-03-02T13:34:55;29.95;;;17.20;;
36441;SDS011;64346;50.820;16.274;2023-03-02T13:37:46;33.70;;;16.42;;
36441;SDS011;64346;50.820;16.274;2023-03-02T13:42:47;29.13;;;14.70;;
36441;SDS011;64346;50.820;16.274;2023-03-02T13:47:54;30.08;;;16.92;;
36441;SDS011;64346;50.820;16.274;2023-03-02T13:50:30;33.70;;;17.45;;
36441;SDS011;64346;50.820;16.274;2023-03-02T13:53:00;29.67;;;16.10;;
36441;SDS011;64346;50.820;16.274;2023-03-02T13:55:30;30.63;;;16.02;;
36441;SDS011;64346;50.820;16.274;2023-03-02T13:57:58;35.08;;;16.83;;
36441;SDS011;64346;50.820;16.274;2023-03-02T14:00:32;35.85;;;19.50;;
36441;SDS011;64346;50.820;16.274;2023-03-02T14:03:00;35.35;;;19.88;;
36441;SDS011;64346;50.820;16.274;2023-03-02T14:05:31;40.30;;;23.20;;
36441;SDS011;64346;50.820;16.274;2023-03-02T14:07:58;43.00;;;22.60;;
36441;SDS011;64346;50.820;16.274;2023-03-02T14:10:26;41.13;;;22.48;;
36441;SDS011;64346;50.820;16.274;2023-03-02T14:13:00;39.97;;;21.77;;
36441;SDS011;64346;50.820;16.274;2023-03-02T14:15:34;39.60;;;22.92;;
36441;SDS011;64346;50.820;16.274;2023-03-02T14:18:39;30.90;;;16.77;;
36441;SDS011;64346;50.820;16.274;2023-03-02T14:21:16;38.45;;;21.05;;
36441;SDS011;64346;50.820;16.274;2023-03-02T14:23:47;46.50;;;24.15;;
36441;SDS011;64346;50.820;16.274;2023-03-02T14:29:27;46.47;;;24.02;;
36441;SDS011;64346;50.820;16.274;2023-03-02T14:32:00;40.47;;;23.30;;
36441;SDS011;64346;50.820;16.274;2023-03-02T14:34:28;45.97;;;25.42;;
36441;SDS011;64346;50.820;16.274;2023-03-02T14:36:56;44.75;;;25.13;;
36441;SDS011;64346;50.820;16.274;2023-03-02T14:42:01;44.08;;;25.25;;
36441;SDS011;64346;50.820;16.274;2023-03-02T14:44:31;41.53;;;24.70;;
36441;SDS011;64346;50.820;16.274;2023-03-02T14:46:58;51.03;;;25.63;;
36441;SDS011;64346;50.820;16.274;2023-03-02T14:49:26;41.92;;;24.38;;
36441;SDS011;64346;50.820;16.274;2023-03-02T14:52:04;42.65;;;23.63;;
36441;SDS011;64346;50.820;16.274;2023-03-02T14:54:55;44.90;;;24.20;;
36441;SDS011;64346;50.820;16.274;2023-03-02T14:57:35;41.45;;;24.58;;
36441;SDS011;64346;50.820;16.274;2023-03-02T15:00:03;60.20;;;35.90;;
36441;SDS011;64346;50.820;16.274;2023-03-02T15:02:31;47.60;;;25.92;;
36441;SDS011;64346;50.820;16.274;2023-03-02T15:04:59;42.90;;;22.65;;
36441;SDS011;64346;50.820;16.274;2023-03-02T15:07:29;45.30;;;23.95;;
36441;SDS011;64346;50.820;16.274;2023-03-02T15:09:56;41.45;;;23.35;;
36441;SDS011;64346;50.820;16.274;2023-03-02T15:12:26;40.95;;;23.77;;
36441;SDS011;64346;50.820;16.274;2023-03-02T15:14:53;44.72;;;24.25;;
36441;SDS011;64346;50.820;16.274;2023-03-02T15:17:20;44.45;;;23.38;;
36441;SDS011;64346;50.820;16.274;2023-03-02T15:19:47;42.28;;;23.50;;
36441;SDS011;64346;50.820;16.274;2023-03-02T15:22:15;38.65;;;21.35;;
36441;SDS011;64346;50.820;16.274;2023-03-02T15:24:42;41.22;;;23.80;;
36441;SDS011;64346;50.820;16.274;2023-03-02T15:27:09;46.40;;;24.50;;
36441;SDS011;64346;50.820;16.274;2023-03-02T15:29:37;43.63;;;24.90;;
36441;SDS011;64346;50.820;16.274;2023-03-02T15:32:04;44.05;;;24.98;;
36441;SDS011;64346;50.820;16.274;2023-03-02T15:34:31;43.47;;;24.45;;
36441;SDS011;64346;50.820;16.274;2023-03-02T15:36:59;41.83;;;22.88;;
36441;SDS011;64346;50.820;16.274;2023-03-02T15:39:28;45.70;;;24.50;;
36441;SDS011;64346;50.820;16.274;2023-03-02T15:41:55;42.33;;;25.23;;
36441;SDS011;64346;50.820;16.274;2023-03-02T15:44:27;40.05;;;22.95;;
36441;SDS011;64346;50.820;16.274;2023-03-02T15:46:55;41.05;;;24.45;;
36441;SDS011;64346;50.820;16.274;2023-03-02T15:49:28;44.00;;;24.35;;
36441;SDS011;64346;50.820;16.274;2023-03-02T15:51:57;45.00;;;25.13;;
36441;SDS011;64346;50.820;16.274;2023-03-02T15:54:25;47.95;;;23.73;;
36441;SDS011;64346;50.820;16.274;2023-03-02T15:56:57;49.78;;;24.45;;
36441;SDS011;64346;50.820;16.274;2023-03-02T15:59:26;43.42;;;25.05;;
36441;SDS011;64346;50.820;16.274;2023-03-02T16:01:56;47.22;;;24.65;;
36441;SDS011;64346;50.820;16.274;2023-03-02T16:04:24;44.80;;;24.27;;
36441;SDS011;64346;50.820;16.274;2023-03-02T16:06:52;44.63;;;24.67;;
36441;SDS011;64346;50.820;16.274;2023-03-02T16:09:19;48.35;;;24.55;;
36441;SDS011;64346;50.820;16.274;2023-03-02T16:11:47;45.90;;;24.23;;
36441;SDS011;64346;50.820;16.274;2023-03-02T16:14:17;48.10;;;26.23;;
36441;SDS011;64346;50.820;16.274;2023-03-02T16:16:47;46.90;;;25.73;;